sensor_id;sensor_type;location;lat;lon;timestamp;temperature;humidity
76293;DHT22;67256;51.154;4.164;2023-08-21T00:01:37;22.80;68.90
76293;DHT22;67256;51.154;4.164;2023-08-21T00:04:03;22.90;68.80
76293;DHT22;67256;51.154;4.164;2023-08-21T00:06:29;22.90;68.40
76293;DHT22;67256;51.154;4.164;2023-08-21T00:08:54;22.90;68.30
76293;DHT22;67256;51.154;4.164;2023-08-21T00:11:20;22.70;69.00
76293;DHT22;67256;51.154;4.164;2023-08-21T00:13:46;22.80;69.00
76293;DHT22;67256;51.154;4.164;2023-08-21T00:16:16;22.80;69.20
76293;DHT22;67256;51.154;4.164;2023-08-21T00:18:42;22.90;69.20
76293;DHT22;67256;51.154;4.164;2023-08-21T00:21:07;22.90;69.30
76293;DHT22;67256;51.154;4.164;2023-08-21T00:23:33;22.80;69.60
76293;DHT22;67256;51.154;4.164;2023-08-21T00:25:59;22.80;69.70
76293;DHT22;67256;51.154;4.164;2023-08-21T00:28:25;22.80;69.70
76293;DHT22;67256;51.154;4.164;2023-08-21T00:30:50;22.60;70.40
76293;DHT22;67256;51.154;4.164;2023-08-21T00:33:16;22.70;70.00
76293;DHT22;67256;51.154;4.164;2023-08-21T00:35:42;22.70;70.20
76293;DHT22;67256;51.154;4.164;2023-08-21T00:38:08;22.70;70.60
76293;DHT22;67256;51.154;4.164;2023-08-21T00:40:34;22.80;70.70
76293;DHT22;67256;51.154;4.164;2023-08-21T00:43:00;22.80;71.00
76293;DHT22;67256;51.154;4.164;2023-08-21T00:45:26;22.60;71.20
76293;DHT22;67256;51.154;4.164;2023-08-21T00:47:52;22.70;71.30
76293;DHT22;67256;51.154;4.164;2023-08-21T00:50:18;22.70;71.20
76293;DHT22;67256;51.154;4.164;2023-08-21T00:52:45;22.50;71.60
76293;DHT22;67256;51.154;4.164;2023-08-21T00:55:13;22.40;72.00
76293;DHT22;67256;51.154;4.164;2023-08-21T00:57:39;22.40;72.50
76293;DHT22;67256;51.154;4.164;2023-08-21T01:00:06;22.40;72.40
76293;DHT22;67256;51.154;4.164;2023-08-21T01:02:35;22.50;72.30
76293;DHT22;67256;51.154;4.164;2023-08-21T01:05:01;22.50;72.20
76293;DHT22;67256;51.154;4.164;2023-08-21T01:07:27;22.40;72.70
76293;DHT22;67256;51.154;4.164;2023-08-21T01:10:09;22.30;72.70
76293;DHT22;67256;51.154;4.164;2023-08-21T01:15:31;22.30;72.90
76293;DHT22;67256;51.154;4.164;2023-08-21T01:17:57;22.30;72.90
76293;DHT22;67256;51.154;4.164;2023-08-21T01:20:24;22.40;72.70
76293;DHT22;67256;51.154;4.164;2023-08-21T01:22:50;22.50;72.80
76293;DHT22;67256;51.154;4.164;2023-08-21T01:25:17;22.40;73.00
76293;DHT22;67256;51.154;4.164;2023-08-21T01:27:45;22.30;73.30
76293;DHT22;67256;51.154;4.164;2023-08-21T01:30:12;22.40;73.20
76293;DHT22;67256;51.154;4.164;2023-08-21T01:35:22;22.40;72.40
76293;DHT22;67256;51.154;4.164;2023-08-21T01:37:49;22.50;72.50
76293;DHT22;67256;51.154;4.164;2023-08-21T01:40:23;22.40;72.20
76293;DHT22;67256;51.154;4.164;2023-08-21T01:42:49;22.50;72.30
76293;DHT22;67256;51.154;4.164;2023-08-21T01:45:15;22.40;72.30
76293;DHT22;67256;51.154;4.164;2023-08-21T01:47:41;22.30;72.60
76293;DHT22;67256;51.154;4.164;2023-08-21T01:50:07;22.20;72.40
76293;DHT22;67256;51.154;4.164;2023-08-21T01:52:33;22.10;72.40
76293;DHT22;67256;51.154;4.164;2023-08-21T01:54:59;22.10;72.60
76293;DHT22;67256;51.154;4.164;2023-08-21T01:57:24;22.10;72.30
76293;DHT22;67256;51.154;4.164;2023-08-21T01:59:50;22.00;72.60
76293;DHT22;67256;51.154;4.164;2023-08-21T02:02:16;22.00;72.80
76293;DHT22;67256;51.154;4.164;2023-08-21T02:04:42;21.90;73.00
76293;DHT22;67256;51.154;4.164;2023-08-21T02:07:08;21.90;72.90
76293;DHT22;67256;51.154;4.164;2023-08-21T02:09:33;21.70;73.30
76293;DHT22;67256;51.154;4.164;2023-08-21T02:11:59;21.70;73.40
76293;DHT22;67256;51.154;4.164;2023-08-21T02:14:25;21.80;73.30
76293;DHT22;67256;51.154;4.164;2023-08-21T02:16:51;21.70;73.30
76293;DHT22;67256;51.154;4.164;2023-08-21T02:19:17;21.80;73.20
76293;DHT22;67256;51.154;4.164;2023-08-21T02:21:43;21.80;73.30
76293;DHT22;67256;51.154;4.164;2023-08-21T02:24:08;21.80;73.20
76293;DHT22;67256;51.154;4.164;2023-08-21T02:26:34;21.60;73.60
76293;DHT22;67256;51.154;4.164;2023-08-21T02:29:00;21.70;73.50
76293;DHT22;67256;51.154;4.164;2023-08-21T02:31:25;21.80;73.20
76293;DHT22;67256;51.154;4.164;2023-08-21T02:33:51;21.80;72.90
76293;DHT22;67256;51.154;4.164;2023-08-21T02:36:17;21.80;72.70
76293;DHT22;67256;51.154;4.164;2023-08-21T02:38:42;21.80;72.90
76293;DHT22;67256;51.154;4.164;2023-08-21T02:41:08;21.80;72.90
76293;DHT22;67256;51.154;4.164;2023-08-21T02:43:34;21.70;72.90
76293;DHT22;67256;51.154;4.164;2023-08-21T02:46:00;21.60;72.80
76293;DHT22;67256;51.154;4.164;2023-08-21T02:48:26;21.60;73.00
76293;DHT22;67256;51.154;4.164;2023-08-21T02:50:51;21.50;73.00
76293;DHT22;67256;51.154;4.164;2023-08-21T02:53:17;21.40;73.60
76293;DHT22;67256;51.154;4.164;2023-08-21T02:55:43;21.40;73.20
76293;DHT22;67256;51.154;4.164;2023-08-21T02:58:09;21.50;73.10
76293;DHT22;67256;51.154;4.164;2023-08-21T03:00:35;21.50;72.70
76293;DHT22;67256;51.154;4.164;2023-08-21T03:03:00;21.60;72.70
76293;DHT22;67256;51.154;4.164;2023-08-21T03:05:26;21.50;73.00
76293;DHT22;67256;51.154;4.164;2023-08-21T03:07:52;21.50;73.20
76293;DHT22;67256;51.154;4.164;2023-08-21T03:10:18;21.50;72.80
76293;DHT22;67256;51.154;4.164;2023-08-21T03:12:44;21.50;73.10
76293;DHT22;67256;51.154;4.164;2023-08-21T03:15:10;21.50;72.80
76293;DHT22;67256;51.154;4.164;2023-08-21T03:17:35;21.50;72.80
76293;DHT22;67256;51.154;4.164;2023-08-21T03:20:02;21.40;73.20
76293;DHT22;67256;51.154;4.164;2023-08-21T03:22:30;21.30;73.50
76293;DHT22;67256;51.154;4.164;2023-08-21T03:24:57;21.20;73.80
76293;DHT22;67256;51.154;4.164;2023-08-21T03:27:24;21.20;73.80
76293;DHT22;67256;51.154;4.164;2023-08-21T03:29:50;21.30;73.50
76293;DHT22;67256;51.154;4.164;2023-08-21T03:32:16;21.30;73.70
76293;DHT22;67256;51.154;4.164;2023-08-21T03:34:42;21.30;72.80
76293;DHT22;67256;51.154;4.164;2023-08-21T03:37:08;21.30;72.40
76293;DHT22;67256;51.154;4.164;2023-08-21T03:39:34;21.30;72.50
76293;DHT22;67256;51.154;4.164;2023-08-21T03:42:00;21.20;72.70
76293;DHT22;67256;51.154;4.164;2023-08-21T03:44:25;21.10;72.70
76293;DHT22;67256;51.154;4.164;2023-08-21T03:46:51;21.10;72.50
76293;DHT22;67256;51.154;4.164;2023-08-21T03:49:17;21.10;72.10
76293;DHT22;67256;51.154;4.164;2023-08-21T03:51:42;21.10;72.10
76293;DHT22;67256;51.154;4.164;2023-08-21T03:54:09;21.00;72.30
76293;DHT22;67256;51.154;4.164;2023-08-21T03:56:35;21.00;72.30
76293;DHT22;67256;51.154;4.164;2023-08-21T03:59:00;21.00;72.10
76293;DHT22;67256;51.154;4.164;2023-08-21T04:01:26;21.10;72.20
76293;DHT22;67256;51.154;4.164;2023-08-21T04:03:52;21.00;72.40
76293;DHT22;67256;51.154;4.164;2023-08-21T04:06:18;20.80;72.90
76293;DHT22;67256;51.154;4.164;2023-08-21T04:08:44;20.80;73.20
76293;DHT22;67256;51.154;4.164;2023-08-21T04:11:09;20.80;73.10
76293;DHT22;67256;51.154;4.164;2023-08-21T04:13:35;20.90;72.70
76293;DHT22;67256;51.154;4.164;2023-08-21T04:16:01;20.80;73.10
76293;DHT22;67256;51.154;4.164;2023-08-21T04:18:27;20.80;73.00
76293;DHT22;67256;51.154;4.164;2023-08-21T04:20:53;20.80;72.20
76293;DHT22;67256;51.154;4.164;2023-08-21T04:23:18;20.70;73.00
76293;DHT22;67256;51.154;4.164;2023-08-21T04:25:44;20.70;73.30
76293;DHT22;67256;51.154;4.164;2023-08-21T04:28:10;20.60;73.90
76293;DHT22;67256;51.154;4.164;2023-08-21T04:30:35;20.60;73.60
76293;DHT22;67256;51.154;4.164;2023-08-21T04:33:01;20.70;73.00
76293;DHT22;67256;51.154;4.164;2023-08-21T04:35:27;20.80;72.60
76293;DHT22;67256;51.154;4.164;2023-08-21T04:37:53;20.80;72.90
76293;DHT22;67256;51.154;4.164;2023-08-21T04:40:19;20.80;72.90
76293;DHT22;67256;51.154;4.164;2023-08-21T04:42:46;20.70;73.30
76293;DHT22;67256;51.154;4.164;2023-08-21T04:45:13;20.70;73.40
76293;DHT22;67256;51.154;4.164;2023-08-21T04:47:38;20.70;73.50
76293;DHT22;67256;51.154;4.164;2023-08-21T04:50:04;20.70;73.10
76293;DHT22;67256;51.154;4.164;2023-08-21T04:52:30;20.70;73.40
76293;DHT22;67256;51.154;4.164;2023-08-21T04:54:56;20.70;73.50
76293;DHT22;67256;51.154;4.164;2023-08-21T04:57:22;20.70;73.50
76293;DHT22;67256;51.154;4.164;2023-08-21T04:59:48;20.80;73.20
76293;DHT22;67256;51.154;4.164;2023-08-21T05:02:13;20.70;73.60
76293;DHT22;67256;51.154;4.164;2023-08-21T05:04:39;20.80;73.30
76293;DHT22;67256;51.154;4.164;2023-08-21T05:07:05;20.80;73.30
76293;DHT22;67256;51.154;4.164;2023-08-21T05:09:32;20.80;73.40
76293;DHT22;67256;51.154;4.164;2023-08-21T05:11:57;20.70;73.60
76293;DHT22;67256;51.154;4.164;2023-08-21T05:14:23;20.70;74.00
76293;DHT22;67256;51.154;4.164;2023-08-21T05:16:49;20.70;73.90
76293;DHT22;67256;51.154;4.164;2023-08-21T05:19:16;20.60;74.10
76293;DHT22;67256;51.154;4.164;2023-08-21T05:21:41;20.60;74.30
76293;DHT22;67256;51.154;4.164;2023-08-21T05:24:07;20.60;74.70
76293;DHT22;67256;51.154;4.164;2023-08-21T05:26:35;20.50;75.00
76293;DHT22;67256;51.154;4.164;2023-08-21T05:29:01;20.60;74.70
76293;DHT22;67256;51.154;4.164;2023-08-21T05:31:27;20.60;74.50
76293;DHT22;67256;51.154;4.164;2023-08-21T05:33:53;20.60;74.50
76293;DHT22;67256;51.154;4.164;2023-08-21T05:36:19;20.80;74.40
76293;DHT22;67256;51.154;4.164;2023-08-21T05:38:45;20.70;75.20
76293;DHT22;67256;51.154;4.164;2023-08-21T05:41:13;20.70;75.30
76293;DHT22;67256;51.154;4.164;2023-08-21T05:43:39;20.80;75.30
76293;DHT22;67256;51.154;4.164;2023-08-21T05:46:07;20.90;75.60
76293;DHT22;67256;51.154;4.164;2023-08-21T05:48:33;20.80;76.10
76293;DHT22;67256;51.154;4.164;2023-08-21T05:50:59;20.80;76.50
76293;DHT22;67256;51.154;4.164;2023-08-21T05:53:25;20.80;76.80
76293;DHT22;67256;51.154;4.164;2023-08-21T05:55:51;20.80;77.30
76293;DHT22;67256;51.154;4.164;2023-08-21T05:58:17;20.80;77.50
76293;DHT22;67256;51.154;4.164;2023-08-21T06:00:43;20.80;77.50
76293;DHT22;67256;51.154;4.164;2023-08-21T06:03:09;20.80;78.10
76293;DHT22;67256;51.154;4.164;2023-08-21T06:05:35;20.90;77.80
76293;DHT22;67256;51.154;4.164;2023-08-21T06:08:01;20.90;78.10
76293;DHT22;67256;51.154;4.164;2023-08-21T06:10:27;20.80;78.80
76293;DHT22;67256;51.154;4.164;2023-08-21T06:12:53;20.90;78.70
76293;DHT22;67256;51.154;4.164;2023-08-21T06:15:19;21.00;78.40
76293;DHT22;67256;51.154;4.164;2023-08-21T06:17:44;21.10;78.10
76293;DHT22;67256;51.154;4.164;2023-08-21T06:20:10;21.10;78.50
76293;DHT22;67256;51.154;4.164;2023-08-21T06:22:37;21.30;78.20
76293;DHT22;67256;51.154;4.164;2023-08-21T06:25:03;21.40;77.50
76293;DHT22;67256;51.154;4.164;2023-08-21T06:27:29;21.50;77.10
76293;DHT22;67256;51.154;4.164;2023-08-21T06:29:55;21.70;77.00
76293;DHT22;67256;51.154;4.164;2023-08-21T06:32:21;21.60;77.10
76293;DHT22;67256;51.154;4.164;2023-08-21T06:34:46;21.70;77.00
76293;DHT22;67256;51.154;4.164;2023-08-21T06:37:12;21.60;77.50
76293;DHT22;67256;51.154;4.164;2023-08-21T06:39:41;21.50;77.90
76293;DHT22;67256;51.154;4.164;2023-08-21T06:42:06;21.30;79.10
76293;DHT22;67256;51.154;4.164;2023-08-21T06:44:33;21.20;79.60
76293;DHT22;67256;51.154;4.164;2023-08-21T06:46:59;21.30;80.00
76293;DHT22;67256;51.154;4.164;2023-08-21T06:49:24;21.30;79.80
76293;DHT22;67256;51.154;4.164;2023-08-21T06:51:50;21.20;80.20
76293;DHT22;67256;51.154;4.164;2023-08-21T06:54:16;21.30;80.30
76293;DHT22;67256;51.154;4.164;2023-08-21T06:56:43;21.30;80.10
76293;DHT22;67256;51.154;4.164;2023-08-21T06:59:09;21.10;80.90
76293;DHT22;67256;51.154;4.164;2023-08-21T07:01:35;21.30;80.50
76293;DHT22;67256;51.154;4.164;2023-08-21T07:04:01;21.30;80.30
76293;DHT22;67256;51.154;4.164;2023-08-21T07:06:30;21.40;80.20
76293;DHT22;67256;51.154;4.164;2023-08-21T07:08:56;21.30;80.10
76293;DHT22;67256;51.154;4.164;2023-08-21T07:11:22;21.40;80.40
76293;DHT22;67256;51.154;4.164;2023-08-21T07:13:49;21.50;80.30
76293;DHT22;67256;51.154;4.164;2023-08-21T07:16:15;21.60;79.80
76293;DHT22;67256;51.154;4.164;2023-08-21T07:18:40;21.70;79.00
76293;DHT22;67256;51.154;4.164;2023-08-21T07:21:06;21.60;79.40
76293;DHT22;67256;51.154;4.164;2023-08-21T07:23:32;21.50;79.60
76293;DHT22;67256;51.154;4.164;2023-08-21T07:25:59;21.40;80.00
76293;DHT22;67256;51.154;4.164;2023-08-21T07:28:25;21.40;80.00
76293;DHT22;67256;51.154;4.164;2023-08-21T07:30:56;21.40;79.70
76293;DHT22;67256;51.154;4.164;2023-08-21T07:33:22;21.40;80.30
76293;DHT22;67256;51.154;4.164;2023-08-21T07:36:03;21.40;79.90
76293;DHT22;67256;51.154;4.164;2023-08-21T07:38:30;21.60;79.30
76293;DHT22;67256;51.154;4.164;2023-08-21T07:41:09;21.60;79.40
76293;DHT22;67256;51.154;4.164;2023-08-21T07:43:42;21.70;79.20
76293;DHT22;67256;51.154;4.164;2023-08-21T07:46:09;21.60;79.80
76293;DHT22;67256;51.154;4.164;2023-08-21T07:48:38;21.70;79.60
76293;DHT22;67256;51.154;4.164;2023-08-21T07:51:03;21.70;79.50
76293;DHT22;67256;51.154;4.164;2023-08-21T07:53:29;21.90;79.20
76293;DHT22;67256;51.154;4.164;2023-08-21T07:55:57;21.90;78.60
76293;DHT22;67256;51.154;4.164;2023-08-21T07:58:23;22.00;77.70
76293;DHT22;67256;51.154;4.164;2023-08-21T08:00:49;21.90;77.00
76293;DHT22;67256;51.154;4.164;2023-08-21T08:03:14;21.80;78.00
76293;DHT22;67256;51.154;4.164;2023-08-21T08:05:41;21.70;79.30
76293;DHT22;67256;51.154;4.164;2023-08-21T08:08:07;21.50;79.70
76293;DHT22;67256;51.154;4.164;2023-08-21T08:10:33;21.60;80.10
76293;DHT22;67256;51.154;4.164;2023-08-21T08:13:02;21.60;79.60
76293;DHT22;67256;51.154;4.164;2023-08-21T08:15:27;21.80;79.30
76293;DHT22;67256;51.154;4.164;2023-08-21T08:17:54;21.90;78.80
76293;DHT22;67256;51.154;4.164;2023-08-21T08:20:20;21.90;78.80
76293;DHT22;67256;51.154;4.164;2023-08-21T08:22:46;22.00;78.50
76293;DHT22;67256;51.154;4.164;2023-08-21T08:25:12;22.00;78.00
76293;DHT22;67256;51.154;4.164;2023-08-21T08:27:39;22.10;77.70
76293;DHT22;67256;51.154;4.164;2023-08-21T08:30:05;22.20;77.80
76293;DHT22;67256;51.154;4.164;2023-08-21T08:32:31;22.20;76.30
76293;DHT22;67256;51.154;4.164;2023-08-21T08:34:57;22.20;77.40
76293;DHT22;67256;51.154;4.164;2023-08-21T08:37:23;22.20;76.70
76293;DHT22;67256;51.154;4.164;2023-08-21T08:39:49;22.20;77.30
76293;DHT22;67256;51.154;4.164;2023-08-21T08:42:14;22.20;77.50
76293;DHT22;67256;51.154;4.164;2023-08-21T08:44:41;22.20;76.60
76293;DHT22;67256;51.154;4.164;2023-08-21T08:47:09;22.30;76.00
76293;DHT22;67256;51.154;4.164;2023-08-21T08:49:35;22.30;75.60
76293;DHT22;67256;51.154;4.164;2023-08-21T08:52:02;22.40;74.10
76293;DHT22;67256;51.154;4.164;2023-08-21T08:54:30;22.50;74.10
76293;DHT22;67256;51.154;4.164;2023-08-21T08:56:56;22.50;74.10
76293;DHT22;67256;51.154;4.164;2023-08-21T08:59:22;22.50;73.30
76293;DHT22;67256;51.154;4.164;2023-08-21T09:01:48;22.40;74.00
76293;DHT22;67256;51.154;4.164;2023-08-21T09:04:14;22.40;73.60
76293;DHT22;67256;51.154;4.164;2023-08-21T09:06:40;22.40;72.90
76293;DHT22;67256;51.154;4.164;2023-08-21T09:09:08;22.30;71.80
76293;DHT22;67256;51.154;4.164;2023-08-21T09:11:41;22.20;75.00
76293;DHT22;67256;51.154;4.164;2023-08-21T09:14:07;22.30;73.30
76293;DHT22;67256;51.154;4.164;2023-08-21T09:16:33;22.50;72.90
76293;DHT22;67256;51.154;4.164;2023-08-21T09:18:59;22.50;72.00
76293;DHT22;67256;51.154;4.164;2023-08-21T09:21:26;22.50;73.00
76293;DHT22;67256;51.154;4.164;2023-08-21T09:24:00;22.50;72.60
76293;DHT22;67256;51.154;4.164;2023-08-21T09:26:30;22.60;72.70
76293;DHT22;67256;51.154;4.164;2023-08-21T09:28:59;22.60;70.50
76293;DHT22;67256;51.154;4.164;2023-08-21T09:31:32;22.50;69.10
76293;DHT22;67256;51.154;4.164;2023-08-21T09:33:59;22.50;71.60
76293;DHT22;67256;51.154;4.164;2023-08-21T09:36:27;22.50;69.40
76293;DHT22;67256;51.154;4.164;2023-08-21T09:38:52;22.50;71.50
76293;DHT22;67256;51.154;4.164;2023-08-21T09:41:22;22.60;70.70
76293;DHT22;67256;51.154;4.164;2023-08-21T09:43:49;22.70;70.50
76293;DHT22;67256;51.154;4.164;2023-08-21T09:46:15;22.80;71.30
76293;DHT22;67256;51.154;4.164;2023-08-21T09:48:44;22.80;71.00
76293;DHT22;67256;51.154;4.164;2023-08-21T09:51:14;22.80;62.00
76293;DHT22;67256;51.154;4.164;2023-08-21T09:53:40;22.80;61.10
76293;DHT22;67256;51.154;4.164;2023-08-21T09:56:06;22.90;63.30
76293;DHT22;67256;51.154;4.164;2023-08-21T09:58:32;22.90;63.20
76293;DHT22;67256;51.154;4.164;2023-08-21T10:00:59;22.90;64.60
76293;DHT22;67256;51.154;4.164;2023-08-21T10:03:26;22.90;65.00
76293;DHT22;67256;51.154;4.164;2023-08-21T10:05:56;22.90;65.00
76293;DHT22;67256;51.154;4.164;2023-08-21T10:08:24;23.00;62.30
76293;DHT22;67256;51.154;4.164;2023-08-21T10:10:51;23.00;61.80
76293;DHT22;67256;51.154;4.164;2023-08-21T10:13:17;23.00;62.40
76293;DHT22;67256;51.154;4.164;2023-08-21T10:15:45;22.90;62.90
76293;DHT22;67256;51.154;4.164;2023-08-21T10:18:18;23.00;63.10
76293;DHT22;67256;51.154;4.164;2023-08-21T10:20:45;23.00;62.10
76293;DHT22;67256;51.154;4.164;2023-08-21T10:23:26;23.00;61.70
76293;DHT22;67256;51.154;4.164;2023-08-21T10:25:59;23.00;61.00
76293;DHT22;67256;51.154;4.164;2023-08-21T10:28:29;23.10;62.30
76293;DHT22;67256;51.154;4.164;2023-08-21T10:33:50;23.10;65.70
76293;DHT22;67256;51.154;4.164;2023-08-21T10:36:39;23.00;64.70
76293;DHT22;67256;51.154;4.164;2023-08-21T10:39:22;23.20;64.70
76293;DHT22;67256;51.154;4.164;2023-08-21T10:42:06;23.20;64.80
76293;DHT22;67256;51.154;4.164;2023-08-21T10:47:33;23.10;65.60
76293;DHT22;67256;51.154;4.164;2023-08-21T10:50:02;23.20;65.20
76293;DHT22;67256;51.154;4.164;2023-08-21T10:52:38;23.30;64.60
76293;DHT22;67256;51.154;4.164;2023-08-21T10:55:07;23.40;64.20
76293;DHT22;67256;51.154;4.164;2023-08-21T10:57:35;23.40;61.10
76293;DHT22;67256;51.154;4.164;2023-08-21T11:00:03;23.50;61.50
76293;DHT22;67256;51.154;4.164;2023-08-21T11:02:30;23.40;60.60
76293;DHT22;67256;51.154;4.164;2023-08-21T11:04:59;23.60;61.80
76293;DHT22;67256;51.154;4.164;2023-08-21T11:07:25;23.60;61.30
76293;DHT22;67256;51.154;4.164;2023-08-21T11:09:51;23.60;60.10
76293;DHT22;67256;51.154;4.164;2023-08-21T11:12:19;23.70;59.60
76293;DHT22;67256;51.154;4.164;2023-08-21T11:14:45;23.80;61.10
76293;DHT22;67256;51.154;4.164;2023-08-21T11:17:11;23.80;61.20
76293;DHT22;67256;51.154;4.164;2023-08-21T11:19:38;23.70;62.20
76293;DHT22;67256;51.154;4.164;2023-08-21T11:22:04;23.80;63.00
76293;DHT22;67256;51.154;4.164;2023-08-21T11:27:16;23.80;61.20
76293;DHT22;67256;51.154;4.164;2023-08-21T11:29:45;23.90;62.10
76293;DHT22;67256;51.154;4.164;2023-08-21T11:32:16;23.90;63.40
76293;DHT22;67256;51.154;4.164;2023-08-21T11:37:17;23.80;62.70
76293;DHT22;67256;51.154;4.164;2023-08-21T11:39:45;23.80;63.00
76293;DHT22;67256;51.154;4.164;2023-08-21T11:42:12;23.80;62.80
76293;DHT22;67256;51.154;4.164;2023-08-21T11:44:51;23.80;61.30
76293;DHT22;67256;51.154;4.164;2023-08-21T11:47:19;23.80;62.10
76293;DHT22;67256;51.154;4.164;2023-08-21T11:49:46;23.90;60.50
76293;DHT22;67256;51.154;4.164;2023-08-21T11:52:22;23.90;59.50
76293;DHT22;67256;51.154;4.164;2023-08-21T11:54:50;23.90;59.00
76293;DHT22;67256;51.154;4.164;2023-08-21T11:57:17;24.00;59.60
76293;DHT22;67256;51.154;4.164;2023-08-21T11:59:42;24.10;58.60
76293;DHT22;67256;51.154;4.164;2023-08-21T12:02:23;24.20;57.50
76293;DHT22;67256;51.154;4.164;2023-08-21T12:05:05;24.20;58.60
76293;DHT22;67256;51.154;4.164;2023-08-21T12:07:34;24.30;58.60
76293;DHT22;67256;51.154;4.164;2023-08-21T12:10:00;24.30;59.30
76293;DHT22;67256;51.154;4.164;2023-08-21T12:12:26;24.30;58.50
76293;DHT22;67256;51.154;4.164;2023-08-21T12:14:51;24.40;59.30
76293;DHT22;67256;51.154;4.164;2023-08-21T12:17:17;24.40;59.20
76293;DHT22;67256;51.154;4.164;2023-08-21T12:19:43;24.30;57.90
76293;DHT22;67256;51.154;4.164;2023-08-21T12:22:09;24.30;57.20
76293;DHT22;67256;51.154;4.164;2023-08-21T12:24:35;24.20;58.00
76293;DHT22;67256;51.154;4.164;2023-08-21T12:27:03;24.30;58.40
76293;DHT22;67256;51.154;4.164;2023-08-21T12:29:28;24.30;56.10
76293;DHT22;67256;51.154;4.164;2023-08-21T12:31:54;24.40;55.60
76293;DHT22;67256;51.154;4.164;2023-08-21T12:34:20;24.50;55.20
76293;DHT22;67256;51.154;4.164;2023-08-21T12:36:45;24.60;56.30
76293;DHT22;67256;51.154;4.164;2023-08-21T12:39:11;24.60;55.30
76293;DHT22;67256;51.154;4.164;2023-08-21T12:41:37;24.50;57.20
76293;DHT22;67256;51.154;4.164;2023-08-21T12:44:04;24.50;55.40
76293;DHT22;67256;51.154;4.164;2023-08-21T12:46:30;24.60;55.50
76293;DHT22;67256;51.154;4.164;2023-08-21T12:48:56;24.60;54.60
76293;DHT22;67256;51.154;4.164;2023-08-21T12:51:22;24.60;53.60
76293;DHT22;67256;51.154;4.164;2023-08-21T12:53:48;24.60;54.20
76293;DHT22;67256;51.154;4.164;2023-08-21T12:56:14;24.60;54.40
76293;DHT22;67256;51.154;4.164;2023-08-21T12:58:40;24.70;53.30
76293;DHT22;67256;51.154;4.164;2023-08-21T13:01:05;24.70;54.50
76293;DHT22;67256;51.154;4.164;2023-08-21T13:03:33;24.70;52.10
76293;DHT22;67256;51.154;4.164;2023-08-21T13:05:59;24.80;49.90
76293;DHT22;67256;51.154;4.164;2023-08-21T13:08:24;24.60;49.90
76293;DHT22;67256;51.154;4.164;2023-08-21T13:10:50;24.70;51.10
76293;DHT22;67256;51.154;4.164;2023-08-21T13:13:16;24.70;51.30
76293;DHT22;67256;51.154;4.164;2023-08-21T13:15:41;24.70;53.20
76293;DHT22;67256;51.154;4.164;2023-08-21T13:18:10;24.80;52.50
76293;DHT22;67256;51.154;4.164;2023-08-21T13:20:37;24.70;53.00
76293;DHT22;67256;51.154;4.164;2023-08-21T13:23:02;24.80;53.20
76293;DHT22;67256;51.154;4.164;2023-08-21T13:25:28;24.90;50.60
76293;DHT22;67256;51.154;4.164;2023-08-21T13:27:55;24.90;53.00
76293;DHT22;67256;51.154;4.164;2023-08-21T13:30:21;25.10;53.30
76293;DHT22;67256;51.154;4.164;2023-08-21T13:32:47;25.20;53.40
76293;DHT22;67256;51.154;4.164;2023-08-21T13:35:13;25.20;54.20
76293;DHT22;67256;51.154;4.164;2023-08-21T13:37:40;25.30;53.60
76293;DHT22;67256;51.154;4.164;2023-08-21T13:40:06;25.40;55.10
76293;DHT22;67256;51.154;4.164;2023-08-21T13:42:47;25.30;52.40
76293;DHT22;67256;51.154;4.164;2023-08-21T13:45:15;25.30;53.60
76293;DHT22;67256;51.154;4.164;2023-08-21T13:47:43;25.30;54.40
76293;DHT22;67256;51.154;4.164;2023-08-21T13:50:10;25.40;54.40
76293;DHT22;67256;51.154;4.164;2023-08-21T13:52:35;25.50;53.40
76293;DHT22;67256;51.154;4.164;2023-08-21T13:55:02;25.60;51.70
76293;DHT22;67256;51.154;4.164;2023-08-21T13:57:28;25.50;52.20
76293;DHT22;67256;51.154;4.164;2023-08-21T13:59:54;25.50;54.40
76293;DHT22;67256;51.154;4.164;2023-08-21T14:02:20;25.60;52.80
76293;DHT22;67256;51.154;4.164;2023-08-21T14:04:46;25.50;53.20
76293;DHT22;67256;51.154;4.164;2023-08-21T14:07:12;25.50;53.50
76293;DHT22;67256;51.154;4.164;2023-08-21T14:09:39;25.60;54.30
76293;DHT22;67256;51.154;4.164;2023-08-21T14:12:04;25.60;54.90
76293;DHT22;67256;51.154;4.164;2023-08-21T14:14:33;25.60;55.00
76293;DHT22;67256;51.154;4.164;2023-08-21T14:16:59;25.60;55.50
76293;DHT22;67256;51.154;4.164;2023-08-21T14:19:25;25.60;55.90
76293;DHT22;67256;51.154;4.164;2023-08-21T14:21:50;25.60;55.90
76293;DHT22;67256;51.154;4.164;2023-08-21T14:24:16;25.50;54.40
76293;DHT22;67256;51.154;4.164;2023-08-21T14:26:42;25.50;55.90
76293;DHT22;67256;51.154;4.164;2023-08-21T14:29:08;25.50;55.20
76293;DHT22;67256;51.154;4.164;2023-08-21T14:31:34;25.40;56.10
76293;DHT22;67256;51.154;4.164;2023-08-21T14:33:59;25.30;58.90
76293;DHT22;67256;51.154;4.164;2023-08-21T14:36:25;25.30;59.40
76293;DHT22;67256;51.154;4.164;2023-08-21T14:38:51;25.20;59.80
76293;DHT22;67256;51.154;4.164;2023-08-21T14:41:17;25.20;59.50
76293;DHT22;67256;51.154;4.164;2023-08-21T14:43:44;25.30;60.00
76293;DHT22;67256;51.154;4.164;2023-08-21T14:46:10;25.40;58.50
76293;DHT22;67256;51.154;4.164;2023-08-21T14:48:38;25.30;58.90
76293;DHT22;67256;51.154;4.164;2023-08-21T14:51:04;25.20;59.40
76293;DHT22;67256;51.154;4.164;2023-08-21T14:53:30;25.40;59.40
76293;DHT22;67256;51.154;4.164;2023-08-21T14:55:56;25.50;59.70
76293;DHT22;67256;51.154;4.164;2023-08-21T14:58:23;25.50;58.60
76293;DHT22;67256;51.154;4.164;2023-08-21T15:00:49;25.60;59.20
76293;DHT22;67256;51.154;4.164;2023-08-21T15:03:15;25.70;59.10
76293;DHT22;67256;51.154;4.164;2023-08-21T15:05:41;25.70;59.80
76293;DHT22;67256;51.154;4.164;2023-08-21T15:08:06;25.80;59.60
76293;DHT22;67256;51.154;4.164;2023-08-21T15:10:32;25.90;58.30
76293;DHT22;67256;51.154;4.164;2023-08-21T15:12:58;25.90;58.10
76293;DHT22;67256;51.154;4.164;2023-08-21T15:15:23;25.80;58.00
76293;DHT22;67256;51.154;4.164;2023-08-21T15:17:49;25.80;58.70
76293;DHT22;67256;51.154;4.164;2023-08-21T15:20:15;25.90;59.40
76293;DHT22;67256;51.154;4.164;2023-08-21T15:22:41;26.00;59.80
76293;DHT22;67256;51.154;4.164;2023-08-21T15:25:09;26.10;59.00
76293;DHT22;67256;51.154;4.164;2023-08-21T15:27:35;26.00;58.30
76293;DHT22;67256;51.154;4.164;2023-08-21T15:30:01;26.00;58.60
76293;DHT22;67256;51.154;4.164;2023-08-21T15:32:27;25.80;58.90
76293;DHT22;67256;51.154;4.164;2023-08-21T15:34:52;25.80;59.20
76293;DHT22;67256;51.154;4.164;2023-08-21T15:37:19;25.70;58.40
76293;DHT22;67256;51.154;4.164;2023-08-21T15:39:44;25.70;59.00
76293;DHT22;67256;51.154;4.164;2023-08-21T15:42:10;25.70;59.80
76293;DHT22;67256;51.154;4.164;2023-08-21T15:44:36;25.70;59.50